Skip Navigation Links
NOAA logo - Click to go to the NOAA homepage
NOAA's National Weather Service
Alaska Aviation Weather Unit
  NWS logo - Click to go to the NWS homepage
Left Navbar Graphic     22 AKDT = 06 GMT

   
NOAA is celebrating 200 years of science, service, and stewardship. Visit the NOAA 200th celebration Web site to learn more.
USA.gov is the U.S. Government's official Web portal to all Federal, state and local government Web resources and services.
Facebook
NWS on Facebook

Important Change Regarding the AAWU Web Presence

 

Over the last several months, the AAWU has been working to navigate its webpages to a nationally supported server. Security, as well as other needs, have necessitated the change.  In the process, we have made an effort to enhance the functionality of our website, as well as some of our products. As of June 20, 2017, aawu.arh.noaa.gov will be discontinued. The new AAWU web address is weather.gov/aawu. It is now live and will run in-parallel with the old site until it is discontinued. Please send any feedback or questions regarding the new webpages to nws.ar.aawu.webauthors@noaa.gov.  Thank you for your patience during this time of transition.
AAWU Home :: Display TAF Add Bookmark
TESTM CENA2 280017Z AUTO 00000KT 10SM  BKN100 BKN200 12/01 A3009 RMK A02 SLP109 T01170012

TESTM CENA2 280047Z AUTO 00000KT 10SM  BKN095 12/M00 A3009 RMK A02 SLP109 T01151001

TESTM CENA2 280117Z AUTO 00000KT 10SM  BKN075 12/00 A3008 RMK A02 SLP108 T01170002

TESTM CENA2 280147Z AUTO 00000KT 10SM  SCT085 BKN110 12/M00 A3008 RMK A02 SLP107 T01201005

TESTM CENA2 280217Z AUTO 1704KT 10SM  BKN065 12/M03 A3008 RMK A02 SLP107 T01201028

TESTM CENA2 280247Z AUTO 2404KT 10SM  SCT060 SCT080 BKN110 12/M05 A3008 RMK A02 SLP107 T01211053

TESTM CENA2 280317Z AUTO 1904KT 10SM  FEW095 BKN110 12/M04 A3008 RMK A02 SLP106 T01251044

TESTM CENA2 280347Z AUTO 2304KT 10SM  FEW095 11/M04 A3007 RMK A02 SLP105 T01141040

TESTM CENA2 280417Z AUTO 2403KT 10SM  SCT075 BKN110 11/M04 A3007 RMK A02 SLP105 T01141042

TESTM CENA2 280447Z AUTO 2607KT 10SM  BKN075 12/M06 A3007 RMK A02 SLP106 T01191064

TESTM CENA2 280517Z AUTO 2704KT 10SM  BKN100 12/M07 A3008 RMK A02 SLP106 T01151067

TESTM CENA2 280547Z AUTO 00000KT 10SM  SCT085 BKN110 11/M05 A3008 RMK A02 SLP107 T01061048

TESTM CENA2 280617Z AUTO 00000KT 10SM  BKN080 BKN110 09/M03 A3008 RMK A02 SLP108 T00941028


NOAA's National Weather Service
Alaska Aviation Weather Unit
6930 Sand Lake Road
Anchorage, AK 99502-1845
Disclaimer
Credits
Glossary
Privacy Policy
About Us
Career Opportunities
Contact AAWU Internet Services Site last modified: April, 17th 2012